Kezar Falls, Maine
Current Conditions -  °F | °C
As of 12:30 AM on Thursday 23 Oct 2014 (Local Time) from KIZG Reporting Station
Light Rain Light Rain  
Wind Chill: 39°   Ceiling: 1500
Heat Index: 46°   Visibility: 10mi
Dew Point: 43°   Wind: 17mph
Humidity: 89%   Direction: 30°NNE
Pressure: 30.02"   Gusts: 26mph
Location:  43.7658°N, 70.9172°W
Report Text: KIZG 230430Z AUTO 03015G23KT 10SM -RA OVC015 08/06 A3002 RMK AO2 P0002 T00780061
Loading
Personal Weather Stations






























Interactive Weather Map
Tropical Storm Tracking
New forecast layout! Learn more

10-Day Weather Forecast

Advertisements
Track Severe Weather on mobile